Time;durP1;ratioP1;P1;durP2;ratioP2;P2;SDS_P1;SDS_P2;PMS_P1;PMS_P2;Temp;Humidity;BMP_temperature;BMP_pressure;BME280_temperature;BME280_humidity;BME280_pressure;Samples;Min_cycle;Max_cycle;Signal;HPM_P1;HPM_P2
2022/05/02 00:01:08;;;;;;;18.65;14.83;;;;;;;9.73;100.00;101497.72;1793238;79;22232;-79
2022/05/02 00:03:35;;;;;;;18.10;14.70;;;;;;;9.69;100.00;101490.56;1775692;79;21444;-78
2022/05/02 00:06:03;;;;;;;19.35;14.18;;;;;;;9.61;100.00;101487.56;1793379;79;20955;-78
2022/05/02 00:08:31;;;;;;;19.32;14.70;;;;;;;9.52;100.00;101488.94;1793406;79;21030;-78
2022/05/02 00:11:00;;;;;;;22.10;16.20;;;;;;;9.45;100.00;101485.84;1793690;79;20999;-78
2022/05/02 00:13:28;;;;;;;19.75;15.72;;;;;;;9.40;100.00;101491.77;1793277;79;22409;-78
2022/05/02 00:15:57;;;;;;;19.32;15.35;;;;;;;9.34;100.00;101488.19;1776233;80;21015;-77
2022/05/02 00:18:24;;;;;;;19.17;14.50;;;;;;;9.30;100.00;101490.13;1793341;79;21094;-77
2022/05/02 00:20:52;;;;;;;18.80;14.10;;;;;;;9.28;100.00;101489.39;1793507;79;21062;-78
2022/05/02 00:23:19;;;;;;;21.75;14.98;;;;;;;9.25;100.00;101489.55;1793465;80;21069;-82
2022/05/02 00:25:46;;;;;;;19.87;14.33;;;;;;;9.24;100.00;101487.05;1793060;79;22091;-82
2022/05/02 00:28:15;;;;;;;20.05;14.50;;;;;;;9.20;100.00;101485.53;1794070;79;21097;-82
2022/05/02 00:30:44;;;;;;;19.05;13.98;;;;;;;9.15;100.00;101481.44;1793117;79;21038;-78
2022/05/02 00:33:13;;;;;;;19.75;13.70;;;;;;;9.13;100.00;101483.27;1793744;79;21038;-77
2022/05/02 00:35:41;;;;;;;20.43;13.50;;;;;;;9.13;100.00;101483.27;1793267;79;21500;-79
2022/05/02 00:38:09;;;;;;;18.27;13.45;;;;;;;9.13;100.00;101485.88;1792725;79;21010;-79
2022/05/02 00:40:37;;;;;;;17.73;12.58;;;;;;;9.13;100.00;101480.67;1793001;79;21000;-78
2022/05/02 00:43:06;;;;;;;19.15;12.73;;;;;;;9.13;100.00;101492.38;1793115;79;21265;-79
2022/05/02 00:45:37;;;;;;;20.75;12.90;;;;;;;9.13;100.00;101487.17;1793413;80;20956;-81
2022/05/02 00:48:08;;;;;;;18.65;13.00;;;;;;;9.11;100.00;101488.19;1793165;79;21047;-78
2022/05/02 00:50:42;;;;;;;18.85;13.65;;;;;;;9.06;100.00;101485.84;1775699;80;22115;-78
2022/05/02 00:53:14;;;;;;;17.77;13.88;;;;;;;8.99;100.00;101482.73;1792448;79;21046;-78
2022/05/02 00:55:43;;;;;;;18.90;14.00;;;;;;;8.94;100.00;101485.19;1793219;79;21062;-78
2022/05/02 00:58:14;;;;;;;18.62;13.78;;;;;;;8.89;100.00;101478.12;1793630;80;21058;-78
2022/05/02 01:00:42;;;;;;;17.83;12.87;;;;;;;8.83;100.00;101480.14;1793807;79;20933;-77
2022/05/02 01:03:12;;;;;;;15.32;12.10;;;;;;;8.73;100.00;101477.66;1793777;79;22150;-79
2022/05/02 01:08:31;;;;;;;12.88;10.55;;;;;;;8.53;100.00;101479.53;1793939;79;21042;-84
2022/05/02 01:11:00;;;;;;;13.38;11.12;;;;;;;8.47;100.00;101482.46;1795657;78;21649;-80
2022/05/02 01:13:43;;;;;;;14.70;10.98;;;;;;;8.45;100.00;101481.66;1803045;78;21009;-80
2022/05/02 01:16:25;;;;;;;12.53;10.03;;;;;;;8.44;100.00;101484.34;1795294;79;21201;-80
2022/05/02 01:18:54;;;;;;;;;;;;;;;8.40;100.00;101484.97;1804899;78;21527;-80
2022/05/02 01:21:26;;;;;;;14.63;10.30;;;;;;;8.34;100.00;101483.52;1777488;79;21014;-79
2022/05/02 01:24:01;;;;;;;14.15;9.93;;;;;;;8.30;100.00;101482.46;1775639;79;21040;-85
2022/05/02 01:26:29;;;;;;;12.75;9.30;;;;;;;8.17;100.00;101490.06;1832532;77;21078;-80
2022/05/02 01:29:00;;;;;;;14.33;10.00;;;;;;;8.06;100.00;101491.88;1845029;77;21097;-80
2022/05/02 01:31:28;;;;;;;11.30;9.10;;;;;;;8.01;100.00;101492.58;1844968;77;21031;-80
2022/05/02 01:33:56;;;;;;;13.40;9.73;;;;;;;8.00;100.00;101490.90;1845045;77;21051;-77
2022/05/02 01:36:24;;;;;;;12.68;9.88;;;;;;;7.99;100.00;101491.81;1844799;77;21063;-81
2022/05/02 01:38:52;;;;;;;12.10;9.45;;;;;;;7.99;100.00;101492.67;1844422;76;21609;-80
2022/05/02 01:41:19;;;;;;;12.53;9.75;;;;;;;8.01;100.00;101491.28;1844702;77;21120;-80
2022/05/02 01:43:48;;;;;;;13.55;9.85;;;;;;;8.01;100.00;101486.92;1844659;77;21276;-83
2022/05/02 01:46:15;;;;;;;12.05;10.13;;;;;;;7.92;100.00;101490.45;1845236;77;21040;-81
2022/05/02 01:48:43;;;;;;;14.40;10.98;;;;;;;7.84;100.00;101486.95;1845118;77;21000;-83
2022/05/02 01:51:11;;;;;;;12.40;9.58;;;;;;;7.79;100.00;101487.18;1844775;77;21073;-84
2022/05/02 01:53:38;;;;;;;13.32;9.70;;;;;;;7.77;100.00;101482.52;1845080;77;21114;-84
2022/05/02 01:56:05;;;;;;;15.60;11.30;;;;;;;7.76;100.00;101489.09;1845011;77;21047;-84
2022/05/02 01:58:34;;;;;;;12.68;9.38;;;;;;;7.74;100.00;101484.81;1845026;77;21008;-81
2022/05/02 02:01:01;;;;;;;13.10;9.53;;;;;;;7.69;100.00;101486.77;1845374;77;21596;-80
2022/05/02 02:03:28;;;;;;;11.08;9.48;;;;;;;7.69;100.00;101493.25;1816735;77;21544;-81
2022/05/02 02:05:58;;;;;;;10.60;9.40;;;;;;;7.70;100.00;101483.27;1800015;78;21128;-80
2022/05/02 02:08:32;;;;;;;12.53;9.45;;;;;;;7.70;100.00;101491.52;1796925;79;21039;-81
2022/05/02 02:11:07;;;;;;;12.90;9.28;;;;;;;7.72;100.00;101493.58;1796909;79;32514;-82
2022/05/02 02:13:35;;;;;;;11.22;8.78;;;;;;;7.75;100.00;101497.30;1796728;79;21953;-84
2022/05/02 02:16:08;;;;;;;10.58;8.53;;;;;;;7.76;100.00;101501.58;1797104;79;21524;-81
2022/05/02 02:18:38;;;;;;;12.45;8.73;;;;;;;7.79;100.00;101497.99;1796758;79;21139;-81
2022/05/02 02:21:09;;;;;;;10.15;9.05;;;;;;;7.82;100.00;101498.67;1797024;79;21501;-80
2022/05/02 02:23:39;;;;;;;10.30;8.85;;;;;;;7.83;100.00;101510.73;1796664;79;21039;-81
2022/05/02 02:26:07;;;;;;;10.53;8.48;;;;;;;7.84;100.00;101501.22;1796929;79;21002;-81
2022/05/02 02:28:42;;;;;;;10.63;8.33;;;;;;;7.82;100.00;101506.45;1796807;79;21516;-80
2022/05/02 02:31:09;;;;;;;9.68;8.10;;;;;;;7.83;100.00;101510.73;1796832;79;21127;-81
2022/05/02 02:33:37;;;;;;;10.25;8.45;;;;;;;7.86;100.00;101504.55;1797214;79;21015;-81
2022/05/02 02:36:05;;;;;;;11.75;8.98;;;;;;;7.92;100.00;101506.00;1796646;79;21047;-81
2022/05/02 02:38:32;;;;;;;11.12;8.65;;;;;;;7.98;100.00;101508.28;1797159;79;21062;-81
2022/05/02 02:41:01;;;;;;;12.78;8.85;;;;;;;8.00;100.00;101506.02;1798514;77;20969;-81
2022/05/02 02:43:28;;;;;;;12.30;8.48;;;;;;;8.02;100.00;101502.87;1739527;82;21142;-80
2022/05/02 02:45:55;;;;;;;10.25;7.80;;;;;;;8.01;100.00;101503.78;1739725;80;21032;-80
2022/05/02 02:48:22;;;;;;;14.75;8.48;;;;;;;8.03;100.00;101512.80;1776884;79;21036;-80
2022/05/02 02:50:50;;;;;;;12.60;9.25;;;;;;;8.08;100.00;101514.70;1739628;81;21079;-79
2022/05/02 02:53:17;;;;;;;10.55;8.50;;;;;;;8.10;100.00;101509.42;1739486;81;20998;-81
2022/05/02 02:55:45;;;;;;;9.85;8.28;;;;;;;8.11;100.00;101510.66;1680705;84;22012;-80
2022/05/02 02:58:12;;;;;;;12.10;8.40;;;;;;;8.12;100.00;101509.75;1776567;79;21521;-80
2022/05/02 03:00:40;;;;;;;9.78;7.55;;;;;;;8.13;100.00;101507.98;1739427;81;21007;-81
2022/05/02 03:03:08;;;;;;;13.35;7.97;;;;;;;8.15;100.00;101506.16;1739597;81;21525;-79
2022/05/02 03:08:22;;;;;;;11.10;7.65;;;;;;;8.21;100.00;101511.86;1809925;79;21108;-80
2022/05/02 03:10:50;;;;;;;9.65;7.37;;;;;;;8.23;100.00;101509.20;1809983;79;21015;-80
2022/05/02 03:13:17;;;;;;;9.63;7.87;;;;;;;8.27;100.00;101513.30;1810258;78;21042;-80
2022/05/02 03:15:45;;;;;;;11.43;7.83;;;;;;;8.29;100.00;101510.66;1810115;79;20998;-81
2022/05/02 03:18:12;;;;;;;13.10;9.00;;;;;;;8.31;100.00;101513.98;1809951;78;21570;-80
2022/05/02 03:20:39;;;;;;;9.73;7.50;;;;;;;8.34;100.00;101513.37;1810160;78;21114;-79
2022/05/02 03:23:06;;;;;;;10.88;7.37;;;;;;;8.40;100.00;101522.60;1806944;78;20920;-79
2022/05/02 03:25:33;;;;;;;9.35;7.30;;;;;;;8.44;100.00;101523.28;1745929;81;21451;-80
2022/05/02 03:28:00;;;;;;;9.75;7.58;;;;;;;8.48;100.00;101525.67;1783420;80;21043;-79
2022/05/02 03:30:27;;;;;;;10.85;7.35;;;;;;;8.52;100.00;101522.45;1746473;80;21035;-80
2022/05/02 03:32:54;;;;;;;14.20;7.50;;;;;;;8.57;100.00;101518.33;1783399;79;21807;-79
2022/05/02 03:35:21;;;;;;;10.30;7.65;;;;;;;8.63;100.00;101520.59;1746221;80;21048;-80
2022/05/02 03:37:50;;;;;;;9.55;7.20;;;;;;;8.66;100.00;101516.08;1783380;79;21110;-79
2022/05/02 03:40:17;;;;;;;11.12;7.62;;;;;;;8.70;100.00;101517.23;1746126;80;21108;-78
2022/05/02 03:42:46;;;;;;;10.93;9.10;;;;;;;8.73;100.00;101521.80;1780736;80;21040;-79
2022/05/02 03:45:13;;;;;;;12.18;9.48;;;;;;;8.76;100.00;101516.89;1746136;80;21117;-80
2022/05/02 03:47:40;;;;;;;12.28;9.40;;;;;;;8.73;100.00;101515.78;1783898;79;20997;-79
2022/05/02 03:50:09;;;;;;;12.80;10.03;;;;;;;8.71;100.00;101518.91;1745903;80;21158;-80
2022/05/02 03:52:36;;;;;;;10.93;8.80;;;;;;;8.69;100.00;101517.70;1783712;80;21104;-80
2022/05/02 03:55:04;;;;;;;12.10;8.83;;;;;;;8.67;100.00;101522.95;1745935;81;21056;-80
2022/05/02 03:57:32;;;;;;;11.70;8.18;;;;;;;8.69;100.00;101517.70;1783319;79;21521;-85
2022/05/02 03:59:59;;;;;;;9.30;8.05;;;;;;;8.74;100.00;101518.72;1745961;80;21079;-83
2022/05/02 04:02:26;;;;;;;9.20;8.30;;;;;;;8.78;100.00;101516.36;1783325;79;21059;-85
2022/05/02 04:04:53;;;;;;;9.68;7.67;;;;;;;8.81;100.00;101520.11;1746311;81;21035;-84
2022/05/02 04:07:20;;;;;;;11.60;8.15;;;;;;;8.83;100.00;101516.50;1783367;79;21047;-84
2022/05/02 04:09:47;;;;;;;8.95;8.00;;;;;;;8.87;100.00;101522.37;1746339;80;21232;-84
2022/05/02 04:12:15;;;;;;;10.38;8.28;;;;;;;8.92;100.00;101519.05;1783586;79;21691;-85
2022/05/02 04:14:44;;;;;;;15.78;8.58;;;;;;;8.95;100.00;101520.20;1746076;80;21008;-79
2022/05/02 04:17:11;;;;;;;10.08;8.88;;;;;;;8.98;100.00;101521.79;1783292;79;21494;-79
2022/05/02 04:19:39;;;;;;;11.73;9.10;;;;;;;8.99;100.00;101528.19;1745820;80;21584;-81
2022/05/02 04:22:07;;;;;;;12.73;9.10;;;;;;;9.02;100.00;101534.15;1783818;79;21105;-80
2022/05/02 04:24:34;;;;;;;10.13;8.75;;;;;;;9.04;100.00;101526.64;1750041;80;21055;-80
2022/05/02 04:27:01;;;;;;;15.00;9.70;;;;;;;9.07;100.00;101529.09;1756657;80;21028;-81
2022/05/02 04:29:29;;;;;;;12.95;10.28;;;;;;;9.11;100.00;101533.18;1747841;80;21032;-82
2022/05/02 04:31:56;;;;;;;14.35;10.48;;;;;;;9.14;100.00;101529.58;1788847;79;21443;-81
2022/05/02 04:34:24;;;;;;;13.08;9.83;;;;;;;9.19;100.00;101539.28;1790671;79;21512;-79
2022/05/02 04:36:51;;;;;;;17.73;10.50;;;;;;;9.22;100.00;101535.66;1788994;79;21528;-81
2022/05/02 04:39:18;;;;;;;14.23;10.23;;;;;;;9.24;100.00;101537.25;1767771;80;21045;-79
2022/05/02 04:41:45;;;;;;;13.90;9.68;;;;;;;9.27;100.00;101538.39;1782935;79;21050;-80
2022/05/02 04:44:12;;;;;;;14.53;10.93;;;;;;;9.30;100.00;101540.80;1783294;79;21007;-79
2022/05/02 04:46:42;;;;;;;16.32;10.95;;;;;;;9.34;100.00;101538.87;1782742;80;21244;-79
2022/05/02 04:49:09;;;;;;;14.90;11.20;;;;;;;9.40;100.00;101537.70;1783244;78;21543;-79
2022/05/02 04:51:37;;;;;;;15.78;10.90;;;;;;;9.46;100.00;101536.91;1787259;79;21051;-81
2022/05/02 04:54:05;;;;;;;13.88;10.88;;;;;;;9.55;100.00;101535.55;1791523;79;21113;-81
2022/05/02 04:56:33;;;;;;;15.10;10.15;;;;;;;9.62;100.00;101537.35;1795927;78;21497;-79
2022/05/02 04:59:00;;;;;;;15.43;10.85;;;;;;;9.73;100.00;101538.04;1803344;79;21060;-80
2022/05/02 05:01:28;;;;;;;13.53;10.23;;;;;;;9.84;100.00;101535.67;1802980;79;21016;-81
2022/05/02 05:03:55;;;;;;;12.90;10.00;;;;;;;9.93;100.00;101536.42;1801656;79;21000;-79
2022/05/02 05:06:22;;;;;;;13.88;9.98;;;;;;;9.99;100.00;101531.33;1801998;78;21079;-80
2022/05/02 05:08:51;;;;;;;13.48;10.30;;;;;;;10.03;100.00;101528.09;1801151;78;21031;-80
2022/05/02 05:11:50;;;;;;;13.85;10.28;;;;;;;10.05;100.00;101528.39;1803506;79;21906;-80
2022/05/02 05:17:41;;;;;;;15.78;10.38;;;;;;;10.23;100.00;101538.63;1786306;78;21559;-80
2022/05/02 05:20:26;;;;;;;13.40;10.53;;;;;;;10.28;100.00;101537.06;1790641;78;21053;-83
2022/05/02 05:23:29;;;;;;;11.73;10.18;;;;;;;10.33;100.00;101537.16;1781498;79;21034;-80
2022/05/02 05:26:16;;;;;;;16.07;10.58;;;;;;;10.40;100.00;101542.41;1799844;79;21217;-79
2022/05/02 05:29:02;;;;;;;14.75;10.15;;;;;;;10.48;100.00;101543.71;1773200;79;21027;-81
2022/05/02 05:31:44;;;;;;;15.50;10.28;;;;;;;10.54;100.00;101544.64;1745096;79;21500;-80
2022/05/02 05:34:34;;;;;;;11.68;9.93;;;;;;;10.61;100.00;101539.91;1784944;79;21000;-81
2022/05/02 05:37:37;;;;;;;13.98;10.98;;;;;;;10.64;100.00;101535.35;1776080;79;21641;-82
2022/05/02 05:40:19;;;;;;;15.65;10.20;;;;;;;10.69;100.00;101535.92;1772304;79;21099;-81
2022/05/02 05:43:13;;;;;;;16.65;10.48;;;;;;;10.77;100.00;101535.92;1794903;78;21036;-82
2022/05/02 05:46:07;;;;;;;14.45;10.98;;;;;;;10.87;100.00;101536.56;1811158;78;22218;-82
2022/05/02 05:48:43;;;;;;;15.55;10.23;;;;;;;11.04;100.00;101538.58;1811577;79;21067;-79
2022/05/02 05:51:40;;;;;;;14.33;10.72;;;;;;;11.22;100.00;101538.37;1811663;78;20969;-80
2022/05/02 05:54:44;;;;;;;16.93;11.08;;;;;;;11.34;100.00;101534.48;1811668;78;21222;-79
2022/05/02 05:57:46;;;;;;;16.60;10.60;;;;;;;11.51;100.00;101533.88;1814982;77;21516;-79
2022/05/02 06:00:14;;;;;;;;;;;;;;;11.65;100.00;101539.06;1835829;77;21035;-80
2022/05/02 06:03:17;;;;;;;21.55;11.12;;;;;;;11.81;100.00;101531.53;1803222;77;20446;-79
2022/05/02 06:05:47;;;;;;;15.98;11.05;;;;;;;11.91;100.00;101529.97;1779925;79;21103;-79
2022/05/02 06:08:20;;;;;;;17.65;11.48;;;;;;;12.05;100.00;101529.57;1779887;79;21553;-78
2022/05/02 06:10:54;;;;;;;17.70;11.95;;;;;;;12.11;100.00;101528.67;1779734;80;21573;-79
2022/05/02 06:13:23;;;;;;;13.38;10.45;;;;;;;12.14;100.00;101531.08;1689968;83;21548;-80
2022/05/02 06:18:42;;;;;;;15.53;11.28;;;;;;;12.31;100.00;101529.11;1780043;80;20985;-78
2022/05/02 06:21:10;;;;;;;14.28;11.85;;;;;;;12.37;100.00;101531.30;1776455;79;21524;-80
2022/05/02 06:23:45;;;;;;;14.68;10.90;;;;;;;12.44;100.00;101532.55;1779910;79;21001;-79
2022/05/02 06:26:14;;;;;;;13.90;10.55;;;;;;;12.58;100.00;101527.69;1775310;79;21067;-80
2022/05/02 06:28:44;;;;;;;16.45;10.63;;;;;;;12.77;100.00;101519.88;1774634;79;21104;-79
2022/05/02 06:31:25;;;;;;;14.03;10.15;;;;;;;12.94;100.00;101517.38;1774396;80;21001;-81
2022/05/02 06:33:52;;;;;;;12.87;10.40;;;;;;;13.12;100.00;101515.22;1774477;79;21232;-80
2022/05/02 06:36:31;;;;;;;14.28;10.05;;;;;;;13.28;100.00;101513.66;1774357;80;20930;-79
2022/05/02 06:39:13;;;;;;;14.60;10.03;;;;;;;13.47;100.00;101518.41;1773615;80;21036;-79
2022/05/02 06:42:26;;;;;;;13.05;9.78;;;;;;;13.63;100.00;101517.28;1771303;79;21962;-80
2022/05/02 06:45:24;;;;;;;16.15;9.90;;;;;;;13.69;100.00;101520.29;1774553;79;21025;-79
2022/05/02 06:48:37;;;;;;;14.90;9.80;;;;;;;13.75;100.00;101529.45;1774594;80;21180;-79
2022/05/02 06:51:28;;;;;;;13.05;9.75;;;;;;;13.79;100.00;101524.36;1774562;79;21001;-81
2022/05/02 06:54:34;;;;;;;18.37;10.48;;;;;;;13.86;100.00;101533.91;1774984;79;21028;-81
2022/05/02 06:57:42;;;;;;;13.93;9.50;;;;;;;13.93;100.00;101532.50;1774989;79;21067;-80
2022/05/02 07:00:10;;;;;;;11.93;10.03;;;;;;;14.03;100.00;101533.94;1774635;80;21096;-79
2022/05/02 07:03:06;;;;;;;19.42;10.30;;;;;;;14.18;100.00;101528.85;1755151;80;21082;-80
2022/05/02 07:05:58;;;;;;;16.48;10.18;;;;;;;14.31;100.00;101530.06;1774606;80;21016;-79
2022/05/02 07:08:29;;;;;;;16.17;10.25;;;;;;;14.48;100.00;101534.00;1774733;79;21044;-79
2022/05/02 07:11:07;;;;;;;13.38;10.03;;;;;;;14.72;100.00;101529.63;1774567;79;20961;-80
2022/05/02 07:14:03;;;;;;;13.65;10.32;;;;;;;14.89;100.00;101532.22;1775620;80;21012;-81
2022/05/02 07:16:32;;;;;;;13.03;9.80;;;;;;;14.98;100.00;101534.94;1774410;79;21213;-78
2022/05/02 07:19:35;;;;;;;13.43;9.38;;;;;;;14.99;100.00;101531.86;1774757;80;21001;-79
2022/05/02 07:22:06;;;;;;;15.60;10.43;;;;;;;15.02;100.00;101533.40;1771564;80;21443;-80
2022/05/02 07:24:51;;;;;;;14.10;10.28;;;;;;;15.04;100.00;101531.00;1774947;79;21001;-81
2022/05/02 07:27:53;;;;;;;14.80;9.65;;;;;;;15.10;100.00;101533.12;1769996;80;20995;-79
2022/05/02 07:30:22;;;;;;;13.60;10.53;;;;;;;15.24;100.00;101535.14;1771820;80;21275;-84
2022/05/02 07:32:54;;;;;;;14.60;11.40;;;;;;;15.41;100.00;101529.84;1772009;81;21492;-80
2022/05/02 07:35:23;;;;;;;15.53;11.65;;;;;;;15.50;100.00;101525.16;1772178;80;21063;-79
2022/05/02 07:37:51;;;;;;;14.00;10.38;;;;;;;15.65;100.00;101533.58;1771784;80;21015;-80
2022/05/02 07:40:21;;;;;;;18.82;10.32;;;;;;;15.80;100.00;101531.95;1772174;80;21707;-81
2022/05/02 07:42:48;;;;;;;16.15;10.08;;;;;;;15.81;94.51;101526.56;1771900;80;21225;-80
2022/05/02 07:45:20;;;;;;;13.18;9.93;;;;;;;15.85;96.12;101523.23;1772372;81;21093;-79
2022/05/02 07:47:48;;;;;;;14.80;10.20;;;;;;;15.92;100.00;101520.44;1775314;79;21034;-80
2022/05/02 07:50:18;;;;;;;13.68;9.88;;;;;;;16.05;100.00;101524.19;1772219;81;21509;-80
2022/05/02 07:52:52;;;;;;;14.70;9.48;;;;;;;16.18;95.21;101526.61;1781659;77;21518;-80
2022/05/02 07:55:23;;;;;;;11.68;9.30;;;;;;;16.27;100.00;101518.41;1783680;79;21686;-80
2022/05/02 07:57:53;;;;;;;11.70;9.43;;;;;;;16.37;95.05;101520.63;1779378;80;21001;-80
2022/05/02 08:00:22;;;;;;;15.73;10.80;;;;;;;16.46;95.94;101513.27;1784345;80;21549;-80
2022/05/02 08:02:50;;;;;;;11.93;9.98;;;;;;;16.58;96.96;101514.50;1783973;79;21029;-79
2022/05/02 08:05:21;;;;;;;15.35;9.90;;;;;;;16.68;86.09;101513.56;1783935;79;21010;-79
2022/05/02 08:07:51;;;;;;;;;;;;;;;16.77;80.51;101509.28;1782514;79;21184;-80
2022/05/02 08:10:57;;;;;;;15.83;10.65;;;;;;;16.84;78.35;101509.09;1781873;79;20134;-79
2022/05/02 08:13:38;;;;;;;11.08;9.73;;;;;;;16.87;72.38;101504.03;1784693;78;21036;-81
2022/05/02 08:16:16;;;;;;;13.15;10.03;;;;;;;16.90;77.79;101510.36;1778073;78;24669;-79
2022/05/02 08:19:19;;;;;;;14.18;9.60;;;;;;;16.98;73.31;101503.15;1770427;79;21058;-80
2022/05/02 08:21:51;;;;;;;13.90;10.08;;;;;;;17.06;71.29;101504.61;1769776;80;21161;-84
2022/05/02 08:27:39;;;;;;;16.62;9.40;;;;;;;17.20;65.83;101492.84;1733642;78;21062;-81
2022/05/02 08:30:18;;;;;;;12.20;7.53;;;;;;;17.30;64.39;101494.17;1823885;77;21018;-78
2022/05/02 08:33:00;;;;;;;10.50;7.30;;;;;;;17.34;61.45;101489.81;1811693;78;21089;-80
2022/05/02 08:35:49;;;;;;;10.03;6.85;;;;;;;17.40;60.42;101495.48;1793261;78;21058;-81
2022/05/02 08:38:43;;;;;;;10.43;7.03;;;;;;;17.48;62.11;101485.91;1762590;79;21088;-79
2022/05/02 08:41:30;;;;;;;8.98;6.87;;;;;;;17.55;58.20;101482.23;1762979;80;21053;-79
2022/05/02 08:44:17;;;;;;;9.03;6.47;;;;;;;17.61;55.40;101481.67;1743111;81;21011;-79
2022/05/02 08:47:11;;;;;;;10.85;6.50;;;;;;;17.65;55.90;101479.12;1765280;79;21064;-80
2022/05/02 08:50:11;;;;;;;11.88;7.92;;;;;;;17.75;59.57;101482.20;1807080;77;21480;-78
2022/05/02 08:53:22;;;;;;;10.70;6.17;;;;;;;17.85;58.11;101475.12;1817090;77;21017;-79
2022/05/02 08:56:07;;;;;;;8.70;6.05;;;;;;;17.93;56.60;101473.91;1801191;78;21089;-79
2022/05/02 08:59:15;;;;;;;11.18;5.97;;;;;;;18.02;53.20;101474.06;1748109;81;21027;-81
2022/05/02 09:02:20;;;;;;;9.20;5.90;;;;;;;18.07;52.63;101467.86;1820062;77;21002;-80
2022/05/02 09:05:02;;;;;;;6.60;5.28;;;;;;;18.18;48.70;101460.30;1812923;78;21733;-79
2022/05/02 09:08:01;;;;;;;6.97;5.35;;;;;;;18.19;50.42;101456.19;1773931;79;21065;-79
2022/05/02 09:11:09;;;;;;;8.68;5.60;;;;;;;18.23;47.65;101464.13;1759105;80;21144;-83
2022/05/02 09:14:14;;;;;;;9.50;6.83;;;;;;;18.24;46.91;101453.93;1719376;81;21584;-79
2022/05/02 09:17:35;;;;;;;9.68;6.17;;;;;;;18.25;51.12;101444.23;1738198;81;21074;-84
2022/05/02 09:20:29;;;;;;;8.40;6.35;;;;;;;18.35;49.24;101446.82;1755791;79;21145;-81
2022/05/02 09:23:41;;;;;;;8.40;5.80;;;;;;;18.44;47.68;101443.31;1756215;79;21072;-81
2022/05/02 09:26:37;;;;;;;11.48;6.28;;;;;;;18.49;51.16;101431.81;1729614;81;21044;-79
2022/05/02 09:29:46;;;;;;;8.98;6.50;;;;;;;18.62;50.94;101430.15;1741594;80;21547;-79
2022/05/02 09:32:41;;;;;;;10.28;7.25;;;;;;;18.75;50.78;101431.11;1809054;78;21065;-81
2022/05/02 09:35:15;;;;;;;8.58;6.20;;;;;;;18.89;47.88;101423.98;1799426;78;21118;-80
2022/05/02 09:37:57;;;;;;;8.55;6.83;;;;;;;18.99;49.45;101421.80;1735275;79;21055;-79
2022/05/02 09:40:36;;;;;;;8.58;6.40;;;;;;;19.08;45.52;101423.03;1798152;79;21675;-81
2022/05/02 09:49:43;;;;;;;9.73;6.08;;;;;;;19.25;44.19;101414.44;1821635;77;21227;-84
2022/05/02 09:52:15;;;;;;;7.95;5.37;;;;;;;19.27;47.09;101404.55;1797889;78;21068;-82
2022/05/02 09:58:34;;;;;;;5.47;4.45;;;;;;;19.46;44.35;101405.67;1717374;81;21027;-78
2022/05/02 10:01:27;;;;;;;5.58;3.70;;;;;;;19.61;44.15;101402.45;1681837;84;21108;-78
2022/05/02 10:04:40;;;;;;;4.37;3.58;;;;;;;19.64;42.05;101395.05;1717549;82;21096;-81
2022/05/02 10:07:11;;;;;;;9.05;5.58;;;;;;;19.52;42.35;101391.84;1729773;81;21074;-82
2022/05/02 10:10:11;;;;;;;8.75;5.83;;;;;;;19.40;42.56;101382.53;1745401;81;21067;-79
2022/05/02 10:13:06;;;;;;;6.05;4.95;;;;;;;19.40;41.72;101381.20;1736946;82;21099;-79
2022/05/02 10:16:14;;;;;;;7.28;5.45;;;;;;;19.48;40.50;101381.27;1769920;79;21067;-80
2022/05/02 10:19:11;;;;;;;6.90;5.35;;;;;;;19.50;41.88;101375.34;1731063;82;21195;-83
2022/05/02 10:22:20;;;;;;;8.33;5.30;;;;;;;19.54;41.76;101366.11;1741326;80;21015;-78
2022/05/02 10:25:13;;;;;;;9.00;4.90;;;;;;;19.66;42.31;101372.45;1750054;80;21096;-78
2022/05/02 10:27:50;;;;;;;11.08;5.20;;;;;;;19.79;39.75;101372.03;1758551;80;21504;-78
2022/05/02 10:30:24;;;;;;;4.80;4.33;;;;;;;19.74;41.33;101362.41;1735926;81;21156;-79
2022/05/02 10:32:57;;;;;;;6.33;4.80;;;;;;;19.82;42.59;101358.00;1742286;81;21277;-79
2022/05/02 10:35:27;;;;;;;5.15;4.20;;;;;;;19.99;39.14;101358.11;1747362;80;21549;-78
2022/05/02 10:38:04;;;;;;;7.12;4.85;;;;;;;20.15;40.77;101358.13;1743764;80;21062;-78
2022/05/02 10:40:45;;;;;;;7.10;4.70;;;;;;;20.30;39.81;101356.22;1752305;80;21041;-81
2022/05/02 10:43:17;;;;;;;6.30;4.67;;;;;;;20.47;39.65;101350.45;1728376;81;21851;-81
2022/05/02 10:45:46;;;;;;;6.42;4.55;;;;;;;20.61;39.37;101354.28;1753880;81;21084;-78
2022/05/02 10:48:54;;;;;;;5.75;4.87;;;;;;;20.57;38.75;101352.46;1745429;81;20955;-78
2022/05/02 10:52:05;;;;;;;7.03;5.50;;;;;;;20.34;38.27;101352.24;1722469;82;21562;-78
2022/05/02 10:54:48;;;;;;;7.53;5.70;;;;;;;19.79;39.99;101356.17;1748213;80;21065;-78
2022/05/02 10:57:27;;;;;;;8.73;5.50;;;;;;;19.14;42.10;101355.61;1749871;80;21125;-78
2022/05/02 11:00:01;;;;;;;6.75;5.50;;;;;;;18.70;41.82;101362.16;1759098;80;22216;-81
2022/05/02 11:03:05;;;;;;;7.35;5.25;;;;;;;18.38;41.68;101362.98;1733211;81;21079;-78
2022/05/02 11:06:12;;;;;;;6.83;5.78;;;;;;;18.18;43.62;101360.14;1764114;80;21002;-81
2022/05/02 11:08:52;;;;;;;6.80;5.37;;;;;;;17.90;45.91;101365.36;1744932;80;21045;-79
2022/05/02 11:11:47;;;;;;;9.15;5.87;;;;;;;17.70;45.17;101364.60;1751207;79;21061;-79
2022/05/02 11:14:42;;;;;;;7.12;5.00;;;;;;;17.55;44.38;101360.27;1734500;81;21191;-78
2022/05/02 11:17:24;;;;;;;6.85;5.25;;;;;;;17.44;45.12;101354.70;1745734;81;21577;-78
2022/05/02 11:23:36;;;;;;;7.17;4.85;;;;;;;17.41;46.24;101354.50;1746639;80;21030;-78
2022/05/02 11:26:33;;;;;;;6.60;5.28;;;;;;;17.38;46.45;101352.17;1738666;81;21133;-78
2022/05/02 11:29:42;;;;;;;5.80;5.20;;;;;;;17.35;45.89;101347.17;1760739;79;21540;-78
2022/05/02 11:32:30;;;;;;;8.28;5.28;;;;;;;17.33;46.19;101347.33;1738717;81;20990;-79
2022/05/02 11:35:05;;;;;;;6.05;5.12;;;;;;;17.33;45.70;101339.90;1736861;80;21571;-78
2022/05/02 11:37:46;;;;;;;8.78;5.58;;;;;;;17.26;46.20;101336.17;1763406;80;21140;-78
2022/05/02 11:40:17;;;;;;;6.90;5.22;;;;;;;17.11;45.97;101337.09;1716856;81;21090;-83
2022/05/02 11:42:49;;;;;;;7.90;4.83;;;;;;;16.99;45.58;101332.47;1805628;78;21127;-78
2022/05/02 11:45:18;;;;;;;5.65;4.80;;;;;;;16.95;45.65;101328.47;1800647;78;21104;-78
2022/05/02 11:47:57;;;;;;;8.23;5.30;;;;;;;16.96;46.79;101320.43;1800533;78;21493;-78
2022/05/02 11:50:27;;;;;;;8.28;4.92;;;;;;;17.01;48.80;101316.06;1798648;78;21560;-78
2022/05/02 11:52:57;;;;;;;6.53;4.58;;;;;;;17.09;50.66;101316.70;1790749;79;21555;-78
2022/05/02 11:55:33;;;;;;;7.37;5.15;;;;;;;17.11;47.89;101316.05;1815322;78;21118;-78
2022/05/02 11:58:27;;;;;;;6.05;4.58;;;;;;;17.06;45.91;101311.70;1751026;79;21057;-79
2022/05/02 12:01:09;;;;;;;6.95;5.17;;;;;;;17.05;46.76;101317.92;1811418;78;21076;-78
2022/05/02 12:04:01;;;;;;;7.08;5.20;;;;;;;17.06;50.03;101315.17;1803049;78;20979;-82
2022/05/02 12:06:45;;;;;;;6.83;4.50;;;;;;;17.08;46.56;101308.45;1809398;78;21073;-80
2022/05/02 12:09:26;;;;;;;8.18;5.53;;;;;;;17.02;45.92;101306.70;1803979;78;21073;-79
2022/05/02 12:11:56;;;;;;;6.62;5.12;;;;;;;17.03;47.03;101306.23;1793215;78;21563;-78
2022/05/02 12:14:24;;;;;;;6.33;4.37;;;;;;;17.11;44.42;101306.36;1789070;79;21034;-78
2022/05/02 12:17:12;;;;;;;6.10;5.12;;;;;;;17.26;46.79;101312.49;1810713;78;21041;-78
2022/05/02 12:19:41;;;;;;;6.53;5.20;;;;;;;17.35;45.85;101308.51;1809794;78;21056;-78
2022/05/02 12:22:22;;;;;;;5.83;4.40;;;;;;;17.48;45.43;101306.88;1813521;77;21966;-79
2022/05/02 12:24:54;;;;;;;5.90;5.30;;;;;;;17.59;45.16;101306.36;1805820;79;21059;-79
2022/05/02 12:27:22;;;;;;;8.65;5.70;;;;;;;17.72;44.32;101309.98;1785448;78;21572;-84
2022/05/02 12:30:00;;;;;;;5.53;4.67;;;;;;;17.81;42.03;101307.30;1788830;78;20991;-81
2022/05/02 12:32:36;;;;;;;7.47;5.33;;;;;;;17.77;42.14;101302.00;1800786;77;21095;-81